Coronel Du Graty, Argentina
Current Conditions -  °F | °C
As of 12:00 PM on Thursday 30 Oct 2014 (Local Time) from SARE Reporting Station
Overcast Overcast  
Wind Chill: 21°   Ceiling: 700
Heat Index: 21°   Visibility: 6mi
Dew Point: 20°   Wind: 13mph
Humidity: 94%   Direction: 70°ENE
Pressure: 29.77"   Gusts: NA
Location:  27.74°S, 61.04°W
Report Text: SARE 301500Z 07011KT 9999 BKN007 BKN018 OVC100 21/20 Q1008
Loading
Personal Weather Stations






























Interactive Weather Map
Tropical Storm Tracking
New forecast layout! Learn more

10-Day Weather Forecast

Advertisements
Track Severe Weather on mobile